createdAt,value
2018-12-16T00:02:44.062Z,11.40
2018-12-16T00:07:27.609Z,11.07
2018-12-16T00:12:09.278Z,10.83
2018-12-16T00:16:50.822Z,11.23
2018-12-16T00:21:32.249Z,11.73
2018-12-16T00:26:14.880Z,10.53
2018-12-16T00:30:56.441Z,12.90
2018-12-16T00:35:38.031Z,12.30
2018-12-16T00:40:19.654Z,11.83
2018-12-16T00:45:01.227Z,11.80
2018-12-16T00:49:42.788Z,11.23
2018-12-16T00:54:24.394Z,12.40
2018-12-16T00:59:06.237Z,12.30
2018-12-16T01:03:47.931Z,12.17
2018-12-16T01:08:29.559Z,10.70
2018-12-16T01:13:11.110Z,10.80
2018-12-16T01:17:52.596Z,11.20
2018-12-16T01:22:34.195Z,11.17
2018-12-16T01:27:15.780Z,11.40
2018-12-16T01:31:57.495Z,11.40
2018-12-16T01:36:39.178Z,10.37
2018-12-16T01:41:20.640Z,10.70
2018-12-16T01:46:02.214Z,11.10
2018-12-16T01:50:43.711Z,9.80
2018-12-16T01:55:25.344Z,10.80
2018-12-16T02:00:09.461Z,11.10
2018-12-16T02:04:52.216Z,11.70
2018-12-16T02:09:33.690Z,10.70
2018-12-16T02:14:15.216Z,10.23
2018-12-16T02:18:56.852Z,10.93
2018-12-16T02:23:38.364Z,10.83
2018-12-16T02:28:20.029Z,10.80
2018-12-16T02:33:01.488Z,10.13
2018-12-16T02:37:43.692Z,10.50
2018-12-16T02:42:25.458Z,11.13
2018-12-16T02:47:08.323Z,10.80
2018-12-16T02:51:51.194Z,10.90
2018-12-16T02:56:34.554Z,11.10
2018-12-16T03:01:16.165Z,10.73
2018-12-16T03:05:57.859Z,11.10
2018-12-16T03:10:39.493Z,10.20
2018-12-16T03:15:21.078Z,9.50
2018-12-16T03:20:03.880Z,9.50
2018-12-16T03:24:45.652Z,10.40
2018-12-16T03:29:28.380Z,10.20
2018-12-16T03:34:10.633Z,11.63
2018-12-16T03:38:52.587Z,11.63
2018-12-16T03:43:35.361Z,11.87
2018-12-16T03:48:18.762Z,11.57
2018-12-16T03:53:01.633Z,11.40
2018-12-16T03:57:44.190Z,11.23
2018-12-16T04:02:25.648Z,9.90
2018-12-16T04:07:07.855Z,10.90
2018-12-16T04:11:51.234Z,11.50
2018-12-16T04:16:33.320Z,11.13
2018-12-16T04:21:16.157Z,9.87
2018-12-16T04:25:58.454Z,9.57
2018-12-16T04:30:40.035Z,9.00
2018-12-16T04:35:21.542Z,10.60
2018-12-16T04:40:02.983Z,10.40
2018-12-16T04:44:44.953Z,11.00
2018-12-16T04:49:28.550Z,10.20
2018-12-16T04:54:10.309Z,10.63
2018-12-16T04:58:53.928Z,9.90
2018-12-16T05:03:36.474Z,11.50
2018-12-16T05:08:18.770Z,11.10
2018-12-16T05:13:00.515Z,11.00
2018-12-16T05:17:42.610Z,10.90
2018-12-16T05:22:24.664Z,11.37
2018-12-16T05:27:08.047Z,10.80
2018-12-16T05:31:49.571Z,11.07
2018-12-16T05:36:31.719Z,11.10
2018-12-16T05:41:14.060Z,11.30
2018-12-16T05:45:56.556Z,11.70
2018-12-16T05:50:38.764Z,11.23
2018-12-16T05:55:21.791Z,10.27
2018-12-16T06:00:04.160Z,11.27
2018-12-16T06:04:45.710Z,11.93
2018-12-16T06:09:27.159Z,11.83
2018-12-16T06:14:09.643Z,12.90
2018-12-16T06:18:52.786Z,12.53
2018-12-16T06:23:35.632Z,10.97
2018-12-16T06:28:19.058Z,10.87
2018-12-16T06:33:00.569Z,12.33
2018-12-16T06:37:46.201Z,12.83
2018-12-16T06:42:29.239Z,11.80
2018-12-16T06:47:10.763Z,13.30
2018-12-16T06:51:52.499Z,13.00
2018-12-16T06:56:34.088Z,11.30
2018-12-16T07:01:16.103Z,13.20
2018-12-16T07:05:58.774Z,12.77
2018-12-16T07:10:41.203Z,12.80
2018-12-16T07:15:22.853Z,13.13
2018-12-16T07:20:06.332Z,11.97
2018-12-16T07:24:50.060Z,14.37
2018-12-16T07:29:32.957Z,14.40
2018-12-16T07:34:15.703Z,13.60
2018-12-16T07:38:57.878Z,14.10
2018-12-16T07:43:39.578Z,13.90
2018-12-16T07:48:23.149Z,13.23
2018-12-16T07:53:05.991Z,12.80
2018-12-16T07:57:47.574Z,13.73
2018-12-16T08:02:30.907Z,13.20
2018-12-16T08:07:14.259Z,14.70
2018-12-16T08:11:55.714Z,15.07
2018-12-16T08:16:38.602Z,14.00
2018-12-16T08:21:22.425Z,15.33
2018-12-16T08:26:04.318Z,13.97
2018-12-16T08:30:47.776Z,13.20
2018-12-16T08:35:30.764Z,13.60
2018-12-16T08:40:13.702Z,13.23
2018-12-16T08:44:56.396Z,13.10
2018-12-16T08:49:38.571Z,11.60
2018-12-16T08:54:20.347Z,13.03
2018-12-16T08:59:02.336Z,12.80
2018-12-16T09:03:46.620Z,13.73
2018-12-16T09:08:29.087Z,13.10
2018-12-16T09:13:11.229Z,13.27
2018-12-16T09:17:52.906Z,12.83
2018-12-16T09:22:35.253Z,12.00
2018-12-16T09:27:16.956Z,11.10
2018-12-16T09:31:58.684Z,11.90
2018-12-16T09:36:40.356Z,11.17
2018-12-16T09:41:21.968Z,11.70
2018-12-16T09:46:04.176Z,12.10
2018-12-16T09:50:46.129Z,12.00
2018-12-16T09:55:29.672Z,11.63
2018-12-16T10:00:12.695Z,12.43
2018-12-16T10:04:54.798Z,11.67
2018-12-16T10:09:38.162Z,10.07
2018-12-16T10:14:20.970Z,9.90
2018-12-16T10:19:02.539Z,10.17
2018-12-16T10:23:44.915Z,9.90
2018-12-16T10:28:27.018Z,10.50
2018-12-16T10:33:10.692Z,9.97
2018-12-16T10:37:52.795Z,8.93
2018-12-16T10:42:35.023Z,10.93
2018-12-16T10:47:16.799Z,9.67
2018-12-16T10:51:58.482Z,7.47
2018-12-16T10:56:40.132Z,7.03
2018-12-16T11:01:26.848Z,6.20
2018-12-16T11:06:08.490Z,5.33
2018-12-16T11:10:50.022Z,6.00
2018-12-16T11:15:31.498Z,6.07
2018-12-16T11:20:13.425Z,5.73
2018-12-16T11:24:55.250Z,6.03
2018-12-16T11:29:36.915Z,6.83
2018-12-16T11:34:18.577Z,7.97
2018-12-16T11:39:00.399Z,7.33
2018-12-16T11:43:41.952Z,7.77
2018-12-16T11:48:23.471Z,8.80
2018-12-16T11:53:05.237Z,10.67
2018-12-16T11:57:46.916Z,9.23
2018-12-16T12:02:32.784Z,10.30
2018-12-16T12:07:14.071Z,9.43
2018-12-16T12:11:56.531Z,9.50
2018-12-16T12:16:39.007Z,9.40
2018-12-16T12:21:21.528Z,8.30
2018-12-16T12:26:03.087Z,8.97
2018-12-16T12:30:44.681Z,8.20
2018-12-16T12:40:27.924Z,9.80
2018-12-16T12:45:15.413Z,9.33
2018-12-16T12:49:57.190Z,9.57
2018-12-16T12:54:38.691Z,10.40
2018-12-16T12:59:20.363Z,10.40
2018-12-16T13:04:01.986Z,9.73
2018-12-16T13:08:43.567Z,9.90
2018-12-16T13:13:25.147Z,9.37
2018-12-16T13:18:06.873Z,11.23
2018-12-16T13:22:48.507Z,9.40
2018-12-16T13:27:30.252Z,9.73
2018-12-16T13:32:14.769Z,8.50
2018-12-16T13:36:56.381Z,9.67
2018-12-16T13:41:38.043Z,9.10
2018-12-16T13:46:20.486Z,9.40
2018-12-16T13:51:03.184Z,8.17
2018-12-16T13:55:44.902Z,7.93
2018-12-16T14:00:27.780Z,9.80
2018-12-16T14:05:10.189Z,9.80
2018-12-16T14:09:53.895Z,10.20
2018-12-16T14:14:35.425Z,8.60
2018-12-16T14:19:17.039Z,9.30
2018-12-16T14:24:00.723Z,10.83
2018-12-16T14:28:42.632Z,11.57
2018-12-16T14:33:24.460Z,10.40
2018-12-16T14:38:06.425Z,10.73
2018-12-16T14:42:49.111Z,10.63
2018-12-16T14:47:31.879Z,9.23
2018-12-16T14:52:15.285Z,10.37
2018-12-16T14:56:57.686Z,11.00
2018-12-16T15:01:39.199Z,10.33
2018-12-16T15:06:22.256Z,11.17
2018-12-16T15:11:06.179Z,11.50
2018-12-16T15:15:48.860Z,10.20
2018-12-16T15:20:31.059Z,11.70
2018-12-16T15:25:13.130Z,11.03
2018-12-16T15:29:54.918Z,10.50
2018-12-16T15:34:36.547Z,10.77
2018-12-16T15:39:18.247Z,11.10
2018-12-16T15:44:00.726Z,10.60
2018-12-16T15:48:42.332Z,10.17
2018-12-16T15:53:23.971Z,11.20
2018-12-16T15:58:05.584Z,9.60
2018-12-16T16:02:47.243Z,9.23
2018-12-16T16:07:28.815Z,9.80
2018-12-16T16:12:10.510Z,9.67
2018-12-16T16:16:52.258Z,9.80
2018-12-16T16:21:33.820Z,8.87
2018-12-16T16:26:16.407Z,10.17
2018-12-16T16:30:58.234Z,9.57
2018-12-16T16:35:39.721Z,9.80
2018-12-16T16:40:21.775Z,10.07
2018-12-16T16:45:03.503Z,9.80
2018-12-16T16:49:45.047Z,11.17
2018-12-16T16:54:26.696Z,9.40
2018-12-16T16:59:08.217Z,9.90
2018-12-16T17:03:48.616Z,11.23
2018-12-16T17:08:29.850Z,10.77
2018-12-16T17:13:11.547Z,9.87
2018-12-16T17:17:53.353Z,9.50
2018-12-16T17:22:34.852Z,9.00
2018-12-16T17:27:16.418Z,9.50
2018-12-16T17:31:58.000Z,9.03
2018-12-16T17:36:39.612Z,10.17
2018-12-16T17:41:21.336Z,10.50
2018-12-16T17:46:02.956Z,9.63
2018-12-16T17:50:44.542Z,9.93
2018-12-16T17:55:26.102Z,10.40
2018-12-16T18:00:10.758Z,10.30
2018-12-16T18:04:53.222Z,10.30
2018-12-16T18:09:34.946Z,11.20
2018-12-16T18:14:16.660Z,9.97
2018-12-16T18:18:58.568Z,10.93
2018-12-16T18:23:40.117Z,11.50
2018-12-16T18:28:22.588Z,11.90
2018-12-16T18:33:04.744Z,9.40
2018-12-16T18:37:46.488Z,9.67
2018-12-16T18:42:29.170Z,9.50
2018-12-16T18:47:10.942Z,8.57
2018-12-16T18:51:52.632Z,9.67
2018-12-16T18:56:34.852Z,10.50
2018-12-16T19:01:17.285Z,11.07
2018-12-16T19:05:59.443Z,11.07
2018-12-16T19:10:41.975Z,11.33
2018-12-16T19:15:23.665Z,8.13
2018-12-16T19:20:07.082Z,11.20
2018-12-16T19:24:48.993Z,11.90
2018-12-16T19:29:31.700Z,11.17
2018-12-16T19:34:13.678Z,12.00
2018-12-16T19:38:56.060Z,11.40
2018-12-16T19:43:39.129Z,11.27
2018-12-16T19:48:21.404Z,8.93
2018-12-16T19:53:03.125Z,10.17
2018-12-16T19:57:45.258Z,11.50
2018-12-16T20:02:26.900Z,12.00
2018-12-16T20:07:09.662Z,11.97
2018-12-16T20:11:52.574Z,10.33
2018-12-16T20:16:35.840Z,11.13
2018-12-16T20:21:19.466Z,10.90
2018-12-16T20:26:01.086Z,11.67
2018-12-16T20:30:43.045Z,11.53
2018-12-16T20:35:25.090Z,9.63
2018-12-16T20:40:08.332Z,10.37
2018-12-16T20:44:52.265Z,9.23
2018-12-16T20:49:33.860Z,10.27
2018-12-16T20:54:15.618Z,9.80
2018-12-16T20:58:57.237Z,10.37
2018-12-16T21:03:38.745Z,10.47
2018-12-16T21:08:20.446Z,11.63
2018-12-16T21:13:07.364Z,9.80
2018-12-16T21:17:54.036Z,10.80
2018-12-16T21:22:35.630Z,9.80
2018-12-16T21:27:17.944Z,10.03
2018-12-16T21:32:00.016Z,9.60
2018-12-16T21:36:41.474Z,9.50
2018-12-16T21:41:23.149Z,8.77
2018-12-16T21:46:04.725Z,8.00
2018-12-16T21:50:46.389Z,9.03
2018-12-16T21:55:27.949Z,9.27
2018-12-16T22:00:10.077Z,8.20
2018-12-16T22:04:52.819Z,9.07
2018-12-16T22:09:34.496Z,6.47
2018-12-16T22:14:16.120Z,7.00
2018-12-16T22:18:57.774Z,6.97
2018-12-16T22:23:39.371Z,5.80
2018-12-16T22:28:20.887Z,5.60
2018-12-16T22:33:03.164Z,6.03
2018-12-16T22:37:44.899Z,6.00
2018-12-16T22:42:27.447Z,6.50
2018-12-16T22:47:09.632Z,6.10
2018-12-16T22:51:52.364Z,5.60
2018-12-16T22:56:35.565Z,6.00
2018-12-16T23:01:19.523Z,6.30
2018-12-16T23:06:02.440Z,6.80
2018-12-16T23:10:44.832Z,6.33
2018-12-16T23:15:26.568Z,6.50
2018-12-16T23:20:14.214Z,7.60
2018-12-16T23:24:56.935Z,7.73
2018-12-16T23:29:38.424Z,7.83
2018-12-16T23:34:20.247Z,8.00
2018-12-16T23:39:01.797Z,7.67
2018-12-16T23:43:45.836Z,4.90
2018-12-16T23:48:28.207Z,7.10
2018-12-16T23:53:10.433Z,6.03
2018-12-16T23:58:00.900Z,6.47
